Time;durP1;ratioP1;P1;durP2;ratioP2;P2;SDS_P1;SDS_P2;PMS_P1;PMS_P2;Temp;Humidity;BMP_temperature;BMP_pressure;BME280_temperature;BME280_humidity;BME280_pressure;Samples;Min_cycle;Max_cycle;Signal;HPM_P1;HPM_P2
2022/12/01 00:00:19;;;;;;;53.67;28.55;;;9.00;99.90;;;;;;5028115;28;20485;-70
2022/12/01 00:02:45;;;;;;;58.13;29.85;;;9.00;99.90;;;;;;5019215;28;20037;-70
2022/12/01 00:05:10;;;;;;;57.72;29.65;;;9.00;99.90;;;;;;5023086;28;20116;-70
2022/12/01 00:07:36;;;;;;;58.80;29.23;;;9.00;99.90;;;;;;5021393;28;20516;-70
2022/12/01 00:12:46;;;;;;;57.60;28.08;;;9.00;99.90;;;;;;5026095;28;20043;-70
2022/12/01 00:15:12;;;;;;;56.88;30.80;;;9.00;99.90;;;;;;5021217;28;20041;-70
2022/12/01 00:17:37;;;;;;;54.83;28.48;;;9.00;99.90;;;;;;5024703;28;20030;-70
2022/12/01 00:20:04;;;;;;;61.58;30.08;;;9.00;99.90;;;;;;5023733;28;20085;-70
2022/12/01 00:22:31;;;;;;;54.83;26.88;;;8.90;99.90;;;;;;5057362;28;20036;-70
2022/12/01 00:24:56;;;;;;;57.00;27.67;;;8.90;99.90;;;;;;5027611;28;20092;-70
2022/12/01 00:27:22;;;;;;;61.28;27.77;;;8.90;99.90;;;;;;5027444;28;20441;-70
2022/12/01 00:29:47;;;;;;;63.20;29.25;;;8.90;99.90;;;;;;5026483;28;20025;-70
2022/12/01 00:32:13;;;;;;;62.38;28.90;;;9.00;99.90;;;;;;5022066;28;20442;-70
2022/12/01 00:34:39;;;;;;;56.08;26.80;;;9.00;99.90;;;;;;5024211;28;20120;-70
2022/12/01 00:37:05;;;;;;;63.10;29.67;;;8.90;99.90;;;;;;5021865;28;20030;-70
2022/12/01 00:39:30;;;;;;;60.75;27.52;;;8.90;99.90;;;;;;5024704;28;20022;-70
2022/12/01 00:41:56;;;;;;;58.50;28.52;;;9.00;99.90;;;;;;5038922;28;20030;-70
2022/12/01 00:44:21;;;;;;;60.70;29.10;;;9.00;99.90;;;;;;5022646;28;20022;-70
2022/12/01 00:46:47;;;;;;;62.28;27.83;;;9.00;99.90;;;;;;5025305;28;20449;-70
2022/12/01 00:49:14;;;;;;;64.70;29.48;;;9.00;99.90;;;;;;5026752;28;20026;-70
2022/12/01 00:51:40;;;;;;;59.58;29.35;;;8.90;99.90;;;;;;5020690;28;20064;-70
2022/12/01 00:54:05;;;;;;;58.30;27.20;;;8.90;99.90;;;;;;5026681;28;20054;-70
2022/12/01 00:56:31;;;;;;;58.28;28.85;;;8.90;99.90;;;;;;5026629;28;20508;-69
2022/12/01 00:58:56;;;;;;;57.28;27.35;;;8.90;99.90;;;;;;5021369;28;20045;-69
2022/12/01 01:01:22;;;;;;;61.85;27.85;;;8.80;99.90;;;;;;5026077;28;20463;-70
2022/12/01 01:03:47;;;;;;;62.05;28.23;;;8.80;99.90;;;;;;5021244;28;20060;-70
2022/12/01 01:06:13;;;;;;;66.60;30.38;;;8.70;99.90;;;;;;5025258;28;20079;-70
2022/12/01 01:08:40;;;;;;;66.47;30.13;;;8.70;99.90;;;;;;5026377;28;20037;-69
2022/12/01 01:11:06;;;;;;;71.82;31.20;;;8.70;99.90;;;;;;5023102;28;20569;-70
2022/12/01 01:13:33;;;;;;;71.13;31.38;;;8.70;99.90;;;;;;5025237;28;20052;-70
2022/12/01 01:16:04;;;;;;;73.88;32.83;;;8.70;99.90;;;;;;5030432;28;20091;-70
2022/12/01 01:18:30;;;;;;;82.35;33.58;;;8.60;99.90;;;;;;5029041;28;20024;-73
2022/12/01 01:21:04;;;;;;;81.82;31.50;;;8.60;99.90;;;;;;5024698;28;20018;-71
2022/12/01 01:23:30;;;;;;;79.72;32.95;;;8.60;99.90;;;;;;5028120;28;20017;-72
2022/12/01 01:26:04;;;;;;;84.95;33.28;;;8.60;99.90;;;;;;5022452;28;20497;-71
2022/12/01 01:28:31;;;;;;;86.72;34.53;;;8.60;99.90;;;;;;5030113;28;20053;-70
2022/12/01 01:30:57;;;;;;;83.70;34.00;;;8.70;99.90;;;;;;5030078;28;20037;-71
2022/12/01 01:33:22;;;;;;;91.13;36.30;;;8.60;99.90;;;;;;5030127;28;20080;-71
2022/12/01 01:35:48;;;;;;;84.95;34.92;;;8.60;99.90;;;;;;5028978;28;20037;-70
2022/12/01 01:38:14;;;;;;;88.90;34.65;;;8.70;99.90;;;;;;5026610;28;20030;-70
2022/12/01 01:40:46;;;;;;;89.68;35.15;;;8.70;99.90;;;;;;5027691;28;20072;-71
2022/12/01 01:43:16;;;;;;;89.18;36.10;;;8.70;99.90;;;;;;5028903;28;20450;-71
2022/12/01 01:45:42;;;;;;;93.35;37.45;;;8.70;99.90;;;;;;5022994;28;20033;-70
2022/12/01 01:48:11;;;;;;;95.03;37.47;;;8.80;99.90;;;;;;5031488;28;20358;-70
2022/12/01 01:50:38;;;;;;;98.93;37.70;;;8.70;99.90;;;;;;5025596;28;20096;-71
2022/12/01 01:53:09;;;;;;;95.93;37.00;;;8.70;99.90;;;;;;5027083;28;20469;-71
2022/12/01 01:55:36;;;;;;;94.93;38.53;;;8.80;99.90;;;;;;5030373;28;20436;-70
2022/12/01 01:58:06;;;;;;;97.40;37.90;;;8.90;99.90;;;;;;5023652;28;20528;-70
2022/12/01 02:00:32;;;;;;;89.05;36.22;;;8.90;99.90;;;;;;5029360;28;20033;-70
2022/12/01 02:02:58;;;;;;;94.60;36.63;;;8.90;99.90;;;;;;5028056;28;20354;-70
2022/12/01 02:05:28;;;;;;;98.07;38.00;;;8.80;99.90;;;;;;5027222;28;20048;-72
2022/12/01 02:07:55;;;;;;;106.43;41.05;;;8.70;99.90;;;;;;5020452;28;20022;-71
2022/12/01 02:10:34;;;;;;;97.43;40.42;;;8.70;99.90;;;;;;5026896;28;20072;-71
2022/12/01 02:13:36;;;;;;;103.00;39.00;;;8.70;99.90;;;;;;5024406;28;20108;-70
2022/12/01 02:16:08;;;;;;;100.83;39.27;;;8.70;99.90;;;;;;5028494;28;20038;-70
2022/12/01 02:19:24;;;;;;;101.40;39.85;;;8.70;99.90;;;;;;5029396;28;20075;-70
2022/12/01 02:22:12;;;;;;;100.65;39.97;;;8.70;99.90;;;;;;5020099;28;20389;-71
2022/12/01 02:24:49;;;;;;;97.07;38.97;;;8.80;99.90;;;;;;5023133;28;20108;-71
2022/12/01 02:27:32;;;;;;;106.90;38.03;;;8.80;99.90;;;;;;5027770;28;20029;-71
2022/12/01 02:30:07;;;;;;;109.70;40.10;;;8.70;99.90;;;;;;5023809;28;20018;-72
2022/12/01 02:32:54;;;;;;;100.00;38.35;;;8.80;99.90;;;;;;5027430;28;20120;-69
2022/12/01 02:35:47;;;;;;;99.03;37.30;;;8.80;99.90;;;;;;5024619;28;20514;-70
2022/12/01 02:38:22;;;;;;;92.70;36.50;;;8.80;99.90;;;;;;5025300;28;20025;-70
2022/12/01 02:40:54;;;;;;;96.53;36.90;;;8.70;99.90;;;;;;5029298;28;20391;-71
2022/12/01 02:43:26;;;;;;;101.22;36.85;;;8.80;99.90;;;;;;5029386;28;20413;-70
2022/12/01 02:46:08;;;;;;;100.95;36.78;;;8.70;99.90;;;;;;5029487;28;20025;-72
2022/12/01 02:48:36;;;;;;;84.10;36.90;;;8.70;99.90;;;;;;5027947;28;20112;-70
2022/12/01 02:51:11;;;;;;;98.32;37.63;;;8.70;99.90;;;;;;5024926;28;20288;-70
2022/12/01 02:53:37;;;;;;;100.95;37.60;;;8.60;99.90;;;;;;5028037;28;20044;-71
2022/12/01 02:56:06;;;;;;;95.47;34.67;;;8.70;99.90;;;;;;5028484;28;20034;-71
2022/12/01 02:58:32;;;;;;;92.07;36.78;;;8.70;99.90;;;;;;5024121;28;20109;-71
2022/12/01 03:01:03;;;;;;;100.43;36.08;;;8.70;99.90;;;;;;5026541;28;20444;-71
2022/12/01 03:03:39;;;;;;;94.00;37.75;;;8.70;99.90;;;;;;5028692;28;20021;-71
2022/12/01 03:06:11;;;;;;;91.60;37.10;;;8.70;99.90;;;;;;5022978;28;20021;-72
2022/12/01 03:08:51;;;;;;;92.75;36.40;;;8.70;99.90;;;;;;5026952;28;20048;-71
2022/12/01 03:11:27;;;;;;;94.20;36.75;;;8.70;99.90;;;;;;5023207;28;20048;-70
2022/12/01 03:13:55;;;;;;;91.75;38.63;;;8.70;99.90;;;;;;5024693;28;20099;-70
2022/12/01 03:16:35;;;;;;;95.80;36.85;;;8.70;99.90;;;;;;5027156;28;20396;-70
2022/12/01 03:19:27;;;;;;;89.53;36.38;;;8.70;99.90;;;;;;5028048;28;20029;-72
2022/12/01 03:22:09;;;;;;;91.93;37.80;;;8.70;99.90;;;;;;5024752;28;20057;-70
2022/12/01 03:24:36;;;;;;;83.03;34.00;;;8.70;99.90;;;;;;5024040;28;20366;-71
2022/12/01 03:27:04;;;;;;;86.40;33.47;;;8.70;99.90;;;;;;5026490;28;20036;-70
2022/12/01 03:29:38;;;;;;;84.53;35.00;;;8.70;99.90;;;;;;5027281;28;20025;-71
2022/12/01 03:32:27;;;;;;;85.63;34.20;;;8.70;99.90;;;;;;5024033;28;20021;-72
2022/12/01 03:35:03;;;;;;;89.47;35.60;;;8.70;99.90;;;;;;5024338;28;20041;-71
2022/12/01 03:37:38;;;;;;;86.90;34.78;;;8.60;99.90;;;;;;5027134;28;20029;-70
2022/12/01 03:40:08;;;;;;;85.90;33.53;;;8.60;99.90;;;;;;5029334;28;20028;-70
2022/12/01 03:42:40;;;;;;;98.65;35.63;;;8.60;99.90;;;;;;5022949;28;20029;-72
2022/12/01 03:45:18;;;;;;;85.25;34.30;;;8.60;99.90;;;;;;5027575;28;20555;-71
2022/12/01 03:47:44;;;;;;;88.97;36.20;;;8.50;99.90;;;;;;5022846;28;20099;-70
2022/12/01 03:50:12;;;;;;;95.45;36.95;;;8.50;99.90;;;;;;5026143;28;20088;-71
2022/12/01 03:52:41;;;;;;;98.25;37.90;;;8.60;99.90;;;;;;5023375;28;20378;-71
2022/12/01 03:55:19;;;;;;;93.85;36.60;;;8.50;99.90;;;;;;5026893;28;20048;-70
2022/12/01 03:58:07;;;;;;;89.20;35.92;;;8.60;99.90;;;;;;5028934;28;20036;-71
2022/12/01 04:00:33;;;;;;;101.15;37.15;;;8.60;99.90;;;;;;5025998;28;20429;-70
2022/12/01 04:03:02;;;;;;;103.07;37.45;;;8.70;99.90;;;;;;5024966;28;20373;-70
2022/12/01 04:05:29;;;;;;;92.18;36.67;;;8.70;99.90;;;;;;5027129;28;20036;-70
2022/12/01 04:07:55;;;;;;;108.72;37.50;;;8.70;99.90;;;;;;5026612;28;20025;-70
2022/12/01 04:10:21;;;;;;;108.95;39.20;;;8.70;99.90;;;;;;5023213;28;20036;-70
2022/12/01 04:12:46;;;;;;;111.25;40.97;;;8.60;99.90;;;;;;5027367;28;20025;-70
2022/12/01 04:15:13;;;;;;;110.57;37.70;;;8.60;99.90;;;;;;5026761;28;20497;-70
2022/12/01 04:17:43;;;;;;;104.93;37.75;;;8.60;99.90;;;;;;5029957;28;20014;-70
2022/12/01 04:20:13;;;;;;;101.35;38.33;;;8.60;99.90;;;;;;5022549;28;20545;-70
2022/12/01 04:22:39;;;;;;;106.00;38.60;;;8.60;99.90;;;;;;5025116;28;20069;-70
2022/12/01 04:25:06;;;;;;;106.45;39.70;;;8.60;99.90;;;;;;5027795;28;20060;-71
2022/12/01 04:27:32;;;;;;;117.38;40.13;;;8.40;99.90;;;;;;5023237;28;20017;-70
2022/12/01 04:29:58;;;;;;;107.57;39.13;;;8.50;99.90;;;;;;5024881;28;20036;-70
2022/12/01 04:32:24;;;;;;;104.47;39.50;;;8.50;99.90;;;;;;5021999;28;20113;-70
2022/12/01 04:34:50;;;;;;;112.03;38.83;;;8.50;99.90;;;;;;5024467;28;20057;-70
2022/12/01 04:37:16;;;;;;;102.55;39.47;;;8.50;99.90;;;;;;5026013;28;20034;-70
2022/12/01 04:39:42;;;;;;;102.70;37.72;;;8.60;99.90;;;;;;5026402;28;20155;-71
2022/12/01 04:42:08;;;;;;;101.40;38.30;;;8.60;99.90;;;;;;5021103;28;20529;-70
2022/12/01 04:44:34;;;;;;;106.70;38.35;;;8.60;99.90;;;;;;5026689;28;20017;-70
2022/12/01 04:46:59;;;;;;;105.22;37.17;;;8.60;99.90;;;;;;5026719;28;20041;-70
2022/12/01 04:49:25;;;;;;;102.80;37.13;;;8.60;99.90;;;;;;5024068;28;20025;-70
2022/12/01 04:51:51;;;;;;;99.43;38.88;;;8.60;99.90;;;;;;5030147;28;20096;-70
2022/12/01 04:54:17;;;;;;;106.55;38.17;;;8.60;99.90;;;;;;5025646;28;20470;-71
2022/12/01 04:56:43;;;;;;;92.22;35.47;;;8.60;99.90;;;;;;5028683;28;20112;-70
2022/12/01 04:59:09;;;;;;;85.95;35.17;;;8.70;99.90;;;;;;5029397;28;20193;-70
2022/12/01 05:01:35;;;;;;;102.45;35.78;;;8.70;99.90;;;;;;5030110;28;20405;-70
2022/12/01 05:04:01;;;;;;;94.05;34.60;;;8.60;99.90;;;;;;5032505;28;20029;-70
2022/12/01 05:06:28;;;;;;;107.35;37.42;;;8.60;99.90;;;;;;5025878;28;20032;-70
2022/12/01 05:08:56;;;;;;;105.15;37.05;;;8.60;99.90;;;;;;5030600;28;20465;-70
2022/12/01 05:11:23;;;;;;;100.75;36.47;;;8.60;99.90;;;;;;5024493;28;20389;-70
2022/12/01 05:13:49;;;;;;;94.68;36.88;;;8.60;99.90;;;;;;5029727;28;20021;-71
2022/12/01 05:16:23;;;;;;;97.88;36.70;;;8.50;99.90;;;;;;5024881;28;20056;-71
2022/12/01 05:20:55;;;;;;;102.35;36.35;;;8.50;99.90;;;;;;5027581;28;20044;-71
2022/12/01 05:21:41;;;;;;;112.75;38.25;;;8.40;99.90;;;;;;5024496;28;20038;-71
2022/12/01 05:24:08;;;;;;;102.63;37.60;;;8.40;99.90;;;;;;5028238;28;20076;-71
2022/12/01 05:26:34;;;;;;;100.35;35.40;;;8.30;99.90;;;;;;5022952;28;20557;-70
2022/12/01 05:28:59;;;;;;;100.20;35.33;;;8.30;99.90;;;;;;5029428;28;20029;-71
2022/12/01 05:31:25;;;;;;;95.75;36.63;;;8.30;99.90;;;;;;5026265;28;20084;-70
2022/12/01 05:33:50;;;;;;;97.05;36.25;;;8.40;99.90;;;;;;5024615;28;20088;-71
2022/12/01 05:36:16;;;;;;;84.07;33.03;;;8.50;99.90;;;;;;5027924;28;20042;-71
2022/12/01 05:38:42;;;;;;;88.82;34.83;;;8.40;99.90;;;;;;5031592;28;20028;-71
2022/12/01 05:41:08;;;;;;;93.30;35.58;;;8.40;99.90;;;;;;5025819;28;20573;-70
2022/12/01 05:43:33;;;;;;;89.65;35.53;;;8.50;99.90;;;;;;5026312;28;20025;-70
2022/12/01 05:45:59;;;;;;;96.75;36.67;;;8.50;99.90;;;;;;5027648;28;20087;-71
2022/12/01 05:48:25;;;;;;;98.90;37.00;;;8.40;99.90;;;;;;5028841;28;20140;-71
2022/12/01 05:50:50;;;;;;;83.30;34.55;;;8.30;99.90;;;;;;5028505;28;20088;-71
2022/12/01 05:53:17;;;;;;;99.03;36.17;;;8.40;99.90;;;;;;5023530;28;20322;-71
2022/12/01 05:55:43;;;;;;;93.50;35.47;;;8.30;99.90;;;;;;5028282;28;20026;-71
2022/12/01 05:58:08;;;;;;;87.60;34.50;;;8.40;99.90;;;;;;5028628;28;20034;-71
2022/12/01 06:00:34;;;;;;;86.72;34.65;;;8.30;99.90;;;;;;5024675;28;20017;-71
2022/12/01 06:03:00;;;;;;;87.18;36.08;;;8.40;99.90;;;;;;5027724;28;20290;-72
2022/12/01 06:05:26;;;;;;;98.95;36.67;;;8.40;99.90;;;;;;5025712;28;20511;-71
2022/12/01 06:07:52;;;;;;;94.32;37.40;;;8.40;99.90;;;;;;5027866;28;20037;-71
2022/12/01 06:10:18;;;;;;;82.50;34.88;;;8.50;99.90;;;;;;5023114;28;20584;-71
2022/12/01 06:12:44;;;;;;;94.18;34.25;;;8.50;99.90;;;;;;5043136;28;20145;-71
2022/12/01 06:15:11;;;;;;;94.40;33.97;;;8.60;99.90;;;;;;5028322;28;20033;-71
2022/12/01 06:17:37;;;;;;;84.25;34.53;;;8.60;99.90;;;;;;5024976;28;20025;-71
2022/12/01 06:20:03;;;;;;;89.85;36.47;;;8.60;99.90;;;;;;5030064;28;20370;-72
2022/12/01 06:22:28;;;;;;;91.47;35.40;;;8.60;99.90;;;;;;5029529;28;20025;-70
2022/12/01 06:24:54;;;;;;;80.32;31.52;;;8.60;99.90;;;;;;5026758;28;20021;-70
2022/12/01 06:27:19;;;;;;;77.15;30.95;;;8.60;99.90;;;;;;5024745;28;20076;-71
2022/12/01 06:29:45;;;;;;;81.32;32.42;;;8.60;99.90;;;;;;5027442;28;20040;-71
2022/12/01 06:32:10;;;;;;;76.78;32.35;;;8.50;99.90;;;;;;5023424;28;20021;-70
2022/12/01 06:34:36;;;;;;;82.85;32.47;;;8.50;99.90;;;;;;5027014;28;20029;-72
2022/12/01 06:37:02;;;;;;;80.80;32.40;;;8.60;99.90;;;;;;5028830;28;20048;-71
2022/12/01 06:39:27;;;;;;;77.30;31.20;;;8.60;99.90;;;;;;5029198;28;20021;-71
2022/12/01 06:41:53;;;;;;;71.28;30.65;;;8.50;99.90;;;;;;5022502;28;20159;-71
2022/12/01 06:44:18;;;;;;;76.38;30.63;;;8.40;99.90;;;;;;5027744;28;20029;-72
2022/12/01 06:46:44;;;;;;;71.43;30.77;;;8.50;99.90;;;;;;5029090;28;20053;-71
2022/12/01 06:49:13;;;;;;;69.03;29.77;;;8.50;99.90;;;;;;5023708;28;20041;-72
2022/12/01 06:51:38;;;;;;;78.53;30.42;;;8.50;99.90;;;;;;5027564;28;20021;-72
2022/12/01 06:54:04;;;;;;;66.75;29.27;;;8.50;99.90;;;;;;5026620;28;20381;-72
2022/12/01 06:56:30;;;;;;;63.90;29.55;;;8.50;99.90;;;;;;5027402;28;20033;-71
2022/12/01 06:59:00;;;;;;;66.60;27.98;;;8.50;99.90;;;;;;5030059;28;20544;-71
2022/12/01 07:01:27;;;;;;;72.38;29.27;;;8.50;99.90;;;;;;5025243;28;20043;-72
2022/12/01 07:03:53;;;;;;;71.75;30.05;;;8.50;99.90;;;;;;5025134;28;20048;-71
2022/12/01 07:06:19;;;;;;;68.43;29.73;;;8.60;99.90;;;;;;5027357;28;20029;-71
2022/12/01 07:08:45;;;;;;;66.68;29.88;;;8.60;99.90;;;;;;5026856;28;20466;-71
2022/12/01 07:11:12;;;;;;;63.05;28.50;;;8.50;99.90;;;;;;5029720;28;20386;-71
2022/12/01 07:13:40;;;;;;;66.57;28.27;;;8.50;99.90;;;;;;5025271;28;20017;-71
2022/12/01 07:16:06;;;;;;;66.78;29.02;;;8.40;99.90;;;;;;5024946;28;20037;-71
2022/12/01 07:18:33;;;;;;;69.47;30.00;;;8.40;99.90;;;;;;5026166;28;20013;-70
2022/12/01 07:21:00;;;;;;;66.47;29.38;;;8.50;99.90;;;;;;5023842;28;20491;-71
2022/12/01 07:23:26;;;;;;;70.70;28.67;;;8.60;99.90;;;;;;5027407;28;20178;-71
2022/12/01 07:26:06;;;;;;;68.45;30.30;;;8.60;99.90;;;;;;5027422;28;20056;-71
2022/12/01 07:28:32;;;;;;;65.00;28.05;;;8.60;99.90;;;;;;5024696;28;20037;-71
2022/12/01 07:31:13;;;;;;;68.18;28.35;;;8.70;99.90;;;;;;5024355;28;20017;-72
2022/12/01 07:33:38;;;;;;;68.78;29.58;;;8.70;99.90;;;;;;5025775;28;20425;-71
2022/12/01 07:36:05;;;;;;;66.18;30.17;;;8.60;99.90;;;;;;5022762;28;20033;-71
2022/12/01 07:38:32;;;;;;;65.50;27.42;;;8.60;99.90;;;;;;5025353;28;20024;-72
2022/12/01 07:41:06;;;;;;;66.30;29.23;;;8.60;99.90;;;;;;5023572;28;20034;-72
2022/12/01 07:43:32;;;;;;;66.53;29.30;;;8.50;99.90;;;;;;5026233;28;20037;-72
2022/12/01 07:46:13;;;;;;;67.80;27.73;;;8.50;99.90;;;;;;5022360;28;20706;-71
2022/12/01 07:48:40;;;;;;;55.08;24.85;;;8.60;99.90;;;;;;5024209;28;20066;-72
2022/12/01 07:51:07;;;;;;;57.70;25.95;;;8.40;99.90;;;;;;5028751;28;20029;-72
2022/12/01 07:53:33;;;;;;;61.65;27.88;;;8.50;99.90;;;;;;5026925;28;20029;-72
2022/12/01 07:55:59;;;;;;;55.33;26.75;;;8.50;99.90;;;;;;5025113;28;20033;-72
2022/12/01 07:58:25;;;;;;;57.45;26.20;;;8.60;99.90;;;;;;5020598;28;20088;-72
2022/12/01 08:00:51;;;;;;;59.25;26.70;;;8.50;99.90;;;;;;5026531;28;20080;-71
2022/12/01 08:03:17;;;;;;;62.33;26.45;;;8.50;99.90;;;;;;5028175;28;20026;-72
2022/12/01 08:05:42;;;;;;;59.00;26.05;;;8.60;99.90;;;;;;5027182;28;20096;-73
2022/12/01 08:08:08;;;;;;;54.28;24.77;;;8.60;99.90;;;;;;5022722;28;20033;-71
2022/12/01 08:10:35;;;;;;;57.38;25.35;;;8.60;99.90;;;;;;5027064;28;20021;-72
2022/12/01 08:13:00;;;;;;;59.80;26.33;;;8.60;99.90;;;;;;5023884;28;20083;-72
2022/12/01 08:15:26;;;;;;;57.08;26.40;;;8.60;99.90;;;;;;5025939;28;20041;-72
2022/12/01 08:17:51;;;;;;;58.88;26.90;;;8.60;99.90;;;;;;5025461;28;20124;-71
2022/12/01 08:20:17;;;;;;;59.92;26.65;;;8.50;99.90;;;;;;5028133;28;20037;-71
2022/12/01 08:22:43;;;;;;;59.30;27.20;;;8.50;99.90;;;;;;5027584;28;20032;-72
2022/12/01 08:25:08;;;;;;;67.57;26.00;;;8.60;99.90;;;;;;5027549;28;20025;-71
2022/12/01 08:27:34;;;;;;;60.40;26.77;;;8.60;99.90;;;;;;5028439;28;20040;-71
2022/12/01 08:30:02;;;;;;;54.85;26.65;;;8.60;99.90;;;;;;5025259;28;20017;-71
2022/12/01 08:32:28;;;;;;;61.67;28.38;;;8.60;99.90;;;;;;5026564;28;20119;-72
2022/12/01 08:34:54;;;;;;;55.50;26.25;;;8.60;99.90;;;;;;5026324;28;20624;-71
2022/12/01 08:37:19;;;;;;;56.10;26.38;;;8.70;99.90;;;;;;5028576;28;20120;-71
2022/12/01 08:39:45;;;;;;;59.15;26.42;;;8.70;99.90;;;;;;5027224;28;20124;-72
2022/12/01 08:42:11;;;;;;;64.38;27.65;;;8.70;99.90;;;;;;5026340;28;20108;-73
2022/12/01 08:44:36;;;;;;;65.93;29.00;;;8.70;99.90;;;;;;5027714;28;20473;-73
2022/12/01 08:47:02;;;;;;;57.85;27.02;;;8.70;99.90;;;;;;5020357;28;20049;-72
2022/12/01 08:49:27;;;;;;;61.38;26.27;;;8.70;99.90;;;;;;5025624;28;20018;-71
2022/12/01 08:51:55;;;;;;;54.50;25.02;;;8.70;99.90;;;;;;5025304;28;20022;-73
2022/12/01 08:54:20;;;;;;;57.08;25.83;;;8.70;99.90;;;;;;5024406;28;20032;-71
2022/12/01 08:56:46;;;;;;;54.65;25.05;;;8.80;99.90;;;;;;5026280;28;20478;-71
2022/12/01 08:59:12;;;;;;;58.97;25.67;;;8.80;99.90;;;;;;5023690;28;20147;-72
2022/12/01 09:01:59;;;;;;;60.97;26.25;;;8.80;99.90;;;;;;5022555;28;20026;-71
2022/12/01 09:04:25;;;;;;;58.70;27.27;;;8.70;99.90;;;;;;5025647;28;20034;-71
2022/12/01 09:06:53;;;;;;;52.40;26.52;;;8.70;99.90;;;;;;5027979;28;20013;-72
2022/12/01 09:09:23;;;;;;;60.65;26.10;;;8.70;99.90;;;;;;5026666;28;20109;-71
2022/12/01 09:11:51;;;;;;;64.82;27.55;;;8.70;99.90;;;;;;5025103;28;20477;-72
2022/12/01 09:14:17;;;;;;;64.15;26.83;;;8.70;99.90;;;;;;5020950;28;20032;-73
2022/12/01 09:16:45;;;;;;;55.95;25.83;;;8.70;99.90;;;;;;5024285;28;20033;-72
2022/12/01 09:19:12;;;;;;;62.95;29.90;;;8.70;99.90;;;;;;5021150;28;20025;-72
2022/12/01 09:21:37;;;;;;;59.47;27.45;;;8.70;99.90;;;;;;5024237;28;20026;-73
2022/12/01 09:24:05;;;;;;;56.78;27.70;;;8.60;99.90;;;;;;5024525;28;20075;-72
2022/12/01 09:26:32;;;;;;;59.20;28.10;;;8.60;99.90;;;;;;5022295;28;20071;-71
2022/12/01 09:29:01;;;;;;;61.40;28.38;;;8.60;99.90;;;;;;5023834;28;20022;-71
2022/12/01 09:31:28;;;;;;;63.10;28.92;;;8.70;99.90;;;;;;5028538;28;20029;-72
2022/12/01 09:33:58;;;;;;;67.03;28.90;;;8.70;99.90;;;;;;5025663;28;20049;-71
2022/12/01 09:36:24;;;;;;;59.67;30.08;;;8.70;99.90;;;;;;5024144;28;20098;-71
2022/12/01 09:38:50;;;;;;;61.08;29.48;;;8.70;99.90;;;;;;5028233;28;20028;-71
2022/12/01 09:41:29;;;;;;;62.22;27.20;;;8.70;99.90;;;;;;5029509;28;20030;-73
2022/12/01 09:44:14;;;;;;;57.78;26.60;;;8.70;99.90;;;;;;5028877;28;20021;-73
2022/12/01 09:46:49;;;;;;;59.50;28.08;;;8.70;99.90;;;;;;5027522;28;20034;-72
2022/12/01 09:49:21;;;;;;;60.50;28.85;;;8.70;99.90;;;;;;5025926;28;20071;-71
2022/12/01 09:51:48;;;;;;;;;;;8.60;99.90;;;;;;5027903;28;20061;-70
2022/12/01 09:54:13;;;;;;;62.05;31.33;;;8.60;99.90;;;;;;5028193;28;19917;-73
2022/12/01 09:56:45;;;;;;;65.57;31.25;;;8.50;99.90;;;;;;5028458;28;20034;-72
2022/12/01 09:59:24;;;;;;;61.97;29.47;;;8.40;99.90;;;;;;5024650;28;20025;-73
2022/12/01 10:02:24;;;;;;;67.22;30.13;;;8.50;99.90;;;;;;5028565;28;20021;-73
2022/12/01 10:04:53;;;;;;;61.53;28.95;;;8.40;99.90;;;;;;5027634;28;20033;-72
2022/12/01 10:07:29;;;;;;;58.50;30.55;;;8.40;99.90;;;;;;5027022;28;20034;-73
2022/12/01 10:09:58;;;;;;;63.45;31.25;;;8.50;99.90;;;;;;5027151;28;20018;-72
2022/12/01 10:12:28;;;;;;;63.03;31.20;;;8.60;99.90;;;;;;5029140;28;20017;-72
2022/12/01 10:15:22;;;;;;;64.10;31.83;;;8.70;99.90;;;;;;5024225;28;20025;-71
2022/12/01 10:18:07;;;;;;;59.22;28.35;;;8.70;99.90;;;;;;5026987;28;20141;-72
2022/12/01 10:20:43;;;;;;;64.57;30.10;;;8.70;99.90;;;;;;5025327;28;20025;-71
2022/12/01 10:23:34;;;;;;;62.78;32.60;;;8.70;99.90;;;;;;5026333;28;20404;-72
2022/12/01 10:26:14;;;;;;;62.00;32.05;;;8.80;99.90;;;;;;5025458;28;20658;-72
2022/12/01 10:29:12;;;;;;;64.07;31.08;;;8.80;99.90;;;;;;5028684;28;20032;-73
2022/12/01 10:32:03;;;;;;;64.32;30.90;;;8.80;99.90;;;;;;5023714;28;20038;-72
2022/12/01 10:34:31;;;;;;;60.45;29.70;;;8.90;99.90;;;;;;5025301;28;20029;-74
2022/12/01 10:36:57;;;;;;;61.90;30.75;;;8.90;99.90;;;;;;5029576;28;20618;-71
2022/12/01 10:39:23;;;;;;;71.03;33.22;;;9.00;99.90;;;;;;5024954;28;20056;-71
2022/12/01 10:41:49;;;;;;;68.88;32.90;;;9.00;99.90;;;;;;5021816;28;20492;-71
2022/12/01 10:44:17;;;;;;;63.53;30.15;;;9.00;99.90;;;;;;5028029;28;20386;-72
2022/12/01 10:46:48;;;;;;;65.13;31.83;;;8.90;99.90;;;;;;5024116;28;20086;-72
2022/12/01 10:49:15;;;;;;;65.43;32.70;;;8.90;99.90;;;;;;5026976;28;20108;-72
2022/12/01 10:51:56;;;;;;;69.47;33.83;;;8.90;99.90;;;;;;5027988;28;20045;-72
2022/12/01 10:54:30;;;;;;;58.80;30.35;;;9.00;99.90;;;;;;5023632;28;20029;-72
2022/12/01 10:56:56;;;;;;;62.80;30.30;;;9.00;99.90;;;;;;5028972;28;20470;-72
2022/12/01 10:59:58;;;;;;;65.43;31.75;;;9.00;99.90;;;;;;5028034;28;20122;-72
2022/12/01 11:02:26;;;;;;;58.15;30.73;;;9.00;99.90;;;;;;5015831;28;20108;-72
2022/12/01 11:05:06;;;;;;;61.33;29.05;;;9.00;99.90;;;;;;5026858;28;20037;-72
2022/12/01 11:07:33;;;;;;;54.97;26.90;;;8.90;99.90;;;;;;5029330;28;20647;-73
2022/12/01 11:10:13;;;;;;;54.13;26.40;;;8.90;99.90;;;;;;5028973;28;20361;-72
2022/12/01 11:12:39;;;;;;;58.85;27.60;;;9.00;99.90;;;;;;5023965;28;20033;-72
2022/12/01 11:15:06;;;;;;;53.03;28.00;;;9.00;99.90;;;;;;5025935;28;20043;-71
2022/12/01 11:17:41;;;;;;;51.53;24.60;;;9.00;99.90;;;;;;5024722;28;20040;-72
2022/12/01 11:20:31;;;;;;;57.33;26.63;;;9.00;99.90;;;;;;5029548;28;20030;-71
2022/12/01 11:23:28;;;;;;;55.33;26.73;;;9.00;99.90;;;;;;5022986;28;20385;-72
2022/12/01 11:26:01;;;;;;;57.67;26.90;;;9.10;99.90;;;;;;5018351;28;20036;-72
2022/12/01 11:28:28;;;;;;;53.15;26.17;;;9.10;99.90;;;;;;5023748;28;20026;-71
2022/12/01 11:31:07;;;;;;;54.97;27.08;;;9.00;99.90;;;;;;5024730;28;20108;-70
2022/12/01 11:33:51;;;;;;;55.60;26.23;;;9.10;99.90;;;;;;5024021;28;20061;-72
2022/12/01 11:36:42;;;;;;;53.78;25.85;;;9.10;99.90;;;;;;5024152;28;20041;-71
2022/12/01 11:39:25;;;;;;;46.03;20.65;;;9.20;99.90;;;;;;5023522;28;20022;-70
2022/12/01 11:41:56;;;;;;;42.03;20.65;;;9.00;99.90;;;;;;5023194;28;20025;-71
2022/12/01 11:44:22;;;;;;;40.70;22.20;;;9.00;99.90;;;;;;5024160;28;20079;-70
2022/12/01 11:46:48;;;;;;;46.20;22.88;;;9.00;99.90;;;;;;5021752;28;20036;-69
2022/12/01 11:49:20;;;;;;;42.65;21.52;;;9.10;99.90;;;;;;5050675;28;20033;-71
2022/12/01 11:51:46;;;;;;;42.67;21.85;;;9.10;99.90;;;;;;5026492;28;20033;-70
2022/12/01 11:54:25;;;;;;;44.55;22.60;;;9.20;99.90;;;;;;5022675;28;20033;-71
2022/12/01 11:56:52;;;;;;;48.40;23.27;;;9.10;99.90;;;;;;5025472;28;20486;-71
2022/12/01 11:59:22;;;;;;;46.33;23.60;;;9.20;99.90;;;;;;5027098;28;20093;-70
2022/12/01 12:02:19;;;;;;;43.78;21.83;;;9.30;99.90;;;;;;5024206;28;20393;-73
2022/12/01 12:05:03;;;;;;;48.80;21.88;;;9.20;99.90;;;;;;5025264;28;20037;-71
2022/12/01 12:08:00;;;;;;;48.92;23.52;;;9.20;99.90;;;;;;5026184;28;20105;-71
2022/12/01 12:10:54;;;;;;;51.38;24.30;;;9.10;99.90;;;;;;5024610;28;20034;-72
2022/12/01 12:13:42;;;;;;;52.30;23.33;;;9.30;99.90;;;;;;5021453;28;20544;-70
2022/12/01 12:16:35;;;;;;;54.70;24.95;;;9.30;99.90;;;;;;5022519;28;20095;-74
2022/12/01 12:19:18;;;;;;;49.30;24.20;;;9.20;99.90;;;;;;5025622;28;20509;-72
2022/12/01 12:21:56;;;;;;;60.38;27.27;;;9.30;99.90;;;;;;5024635;28;20801;-71
2022/12/01 12:24:40;;;;;;;59.53;26.80;;;9.30;99.90;;;;;;5022298;28;20033;-75
2022/12/01 12:27:20;;;;;;;62.65;27.60;;;9.30;99.90;;;;;;5025519;28;20028;-71
2022/12/01 12:30:09;;;;;;;59.17;28.00;;;9.30;99.90;;;;;;5026530;28;20408;-71
2022/12/01 12:33:08;;;;;;;57.97;27.75;;;9.40;99.90;;;;;;5020694;28;22530;-71
2022/12/01 12:36:04;;;;;;;56.55;26.40;;;9.40;99.90;;;;;;5024180;28;20576;-69
2022/12/01 12:39:17;;;;;;;58.85;28.70;;;9.40;99.90;;;;;;5021156;28;20406;-70
2022/12/01 12:41:47;;;;;;;59.78;27.95;;;9.40;99.90;;;;;;5020688;28;20041;-69
2022/12/01 12:44:45;;;;;;;59.90;28.48;;;9.40;99.90;;;;;;5025631;28;20556;-70
2022/12/01 12:47:35;;;;;;;59.67;27.42;;;9.30;99.90;;;;;;5011748;28;20494;-71
2022/12/01 12:50:36;;;;;;;57.92;27.35;;;9.20;99.90;;;;;;5024364;28;20036;-71
2022/12/01 12:53:11;;;;;;;56.42;27.38;;;9.30;99.90;;;;;;5019955;28;20046;-71
2022/12/01 12:55:43;;;;;;;56.72;27.95;;;9.30;99.90;;;;;;5027165;28;20429;-71
2022/12/01 12:58:24;;;;;;;55.92;27.27;;;9.40;99.90;;;;;;5026675;28;20029;-71